Time;durP1;ratioP1;P1;durP2;ratioP2;P2;SDS_P1;SDS_P2;PMS_P1;PMS_P2;Temp;Humidity;BMP_temperature;BMP_pressure;BME280_temperature;BME280_humidity;BME280_pressure;Samples;Min_cycle;Max_cycle;Signal;HPM_P1;HPM_P2
2022/12/23 00:00:56;;;;;;;64.88;27.70;;;7.40;99.90;;;;;;5006997;28;20048;-84
2022/12/23 00:03:22;;;;;;;60.13;26.30;;;7.40;99.90;;;;;;5016630;28;20045;-84
2022/12/23 00:05:48;;;;;;;59.80;27.48;;;7.40;99.90;;;;;;5019046;28;20499;-85
2022/12/23 00:08:13;;;;;;;48.15;24.10;;;7.50;99.90;;;;;;5026178;28;20041;-84
2022/12/23 00:10:39;;;;;;;61.90;27.15;;;7.40;99.90;;;;;;5012271;28;20562;-85
2022/12/23 00:15:50;;;;;;;76.68;28.63;;;7.40;99.90;;;;;;5027475;28;20077;-85
2022/12/23 00:18:17;;;;;;;64.78;28.75;;;7.40;99.90;;;;;;5028607;28;20084;-84
2022/12/23 00:20:45;;;;;;;64.55;27.27;;;7.50;99.90;;;;;;5029963;28;20045;-84
2022/12/23 00:23:11;;;;;;;55.80;27.42;;;7.50;99.90;;;;;;5013766;28;20052;-85
2022/12/23 00:25:42;;;;;;;60.53;25.63;;;7.50;99.90;;;;;;5011898;28;20407;-84
2022/12/23 00:28:14;;;;;;;58.22;26.10;;;7.50;99.90;;;;;;5044063;28;20058;-84
2022/12/23 00:30:48;;;;;;;61.47;28.40;;;7.40;99.90;;;;;;5022372;28;20156;-84
2022/12/23 00:33:16;;;;;;;56.47;26.17;;;7.40;99.90;;;;;;5027564;28;20069;-84
2022/12/23 00:35:42;;;;;;;64.28;25.67;;;7.40;99.90;;;;;;5027702;28;20068;-83
2022/12/23 00:38:08;;;;;;;61.40;23.65;;;7.40;99.90;;;;;;5031002;28;20037;-84
2022/12/23 00:43:18;;;;;;;66.88;25.75;;;7.40;99.90;;;;;;5018445;28;20495;-85
2022/12/23 00:45:44;;;;;;;64.32;27.40;;;8.30;99.90;;;;;;5029654;28;20046;-83
2022/12/23 00:50:53;;;;;;;46.83;23.30;;;8.40;99.90;;;;;;5029651;28;20054;-84
2022/12/23 00:53:20;;;;;;;74.97;29.23;;;7.40;99.90;;;;;;5024168;28;20040;-84
2022/12/23 00:55:46;;;;;;;70.43;28.95;;;7.40;99.90;;;;;;5027078;28;20483;-84
2022/12/23 00:58:17;;;;;;;88.63;29.42;;;7.40;99.90;;;;;;5018175;28;20046;-84
2022/12/23 01:06:12;;;;;;;63.22;25.30;;;7.50;99.90;;;;;;5027583;28;20132;-84
2022/12/23 01:08:38;;;;;;;53.22;24.23;;;7.50;99.90;;;;;;5023538;28;20720;-84
2022/12/23 01:11:06;;;;;;;64.32;26.33;;;7.50;99.90;;;;;;5018013;28;20133;-84
2022/12/23 01:13:32;;;;;;;66.18;27.48;;;7.50;99.90;;;;;;5020981;28;20045;-85
2022/12/23 01:16:04;;;;;;;65.93;27.65;;;8.90;99.90;;;;;;5028157;28;20037;-84
2022/12/23 01:18:34;;;;;;;61.33;26.63;;;7.50;99.90;;;;;;5028615;28;20091;-83
2022/12/23 01:21:08;;;;;;;80.15;30.00;;;8.60;99.90;;;;;;5042129;28;20046;-84
2022/12/23 01:23:34;;;;;;;73.03;30.25;;;7.50;99.90;;;;;;5019244;28;20057;-84
2022/12/23 01:26:03;;;;;;;67.65;27.90;;;7.50;99.90;;;;;;5026628;28;20044;-84
2022/12/23 01:28:30;;;;;;;76.25;29.98;;;7.50;99.90;;;;;;5022617;28;20889;-84
2022/12/23 01:30:56;;;;;;;77.65;30.33;;;7.40;99.90;;;;;;5026530;28;20057;-84
2022/12/23 01:33:22;;;;;;;82.50;30.25;;;7.40;99.90;;;;;;5027716;28;20037;-84
2022/12/23 01:35:47;;;;;;;76.30;28.60;;;7.50;99.90;;;;;;5021787;28;20746;-85
2022/12/23 01:38:13;;;;;;;83.13;29.35;;;7.40;99.90;;;;;;5016613;28;20148;-85
2022/12/23 01:40:41;;;;;;;67.95;27.50;;;7.60;99.90;;;;;;5025544;28;20052;-85
2022/12/23 01:43:17;;;;;;;79.85;29.38;;;7.40;99.90;;;;;;5012322;28;20088;-85
2022/12/23 01:45:43;;;;;;;80.85;28.55;;;7.40;99.90;;;;;;5026006;28;20042;-84
2022/12/23 01:48:18;;;;;;;68.78;26.77;;;7.50;99.90;;;;;;5028326;28;20626;-84
2022/12/23 01:50:57;;;;;;;81.07;28.15;;;7.40;99.90;;;;;;5027423;28;20698;-84
2022/12/23 01:53:35;;;;;;;80.95;29.30;;;7.40;99.90;;;;;;5011241;28;20068;-85
2022/12/23 01:56:12;;;;;;;63.75;25.73;;;8.30;99.90;;;;;;5027822;28;20054;-84
2022/12/23 01:58:42;;;;;;;66.47;26.45;;;7.40;99.90;;;;;;5024701;28;20491;-84
2022/12/23 02:03:57;;;;;;;65.35;26.90;;;7.40;99.90;;;;;;5019347;28;20053;-85
2022/12/23 02:09:29;;;;;;;80.50;29.23;;;7.50;99.90;;;;;;5013366;28;20050;-85
2022/12/23 02:12:25;;;;;;;72.45;28.20;;;7.50;99.90;;;;;;5012606;28;20383;-85
2022/12/23 02:18:09;;;;;;;71.50;26.20;;;7.40;99.90;;;;;;5027678;28;20431;-85
2022/12/23 02:20:44;;;;;;;86.45;30.45;;;7.50;99.90;;;;;;5025266;28;20594;-85
2022/12/23 02:23:28;;;;;;;64.28;25.85;;;7.50;99.90;;;;;;5007808;28;20050;-84
2022/12/23 02:26:20;;;;;;;67.32;27.30;;;7.40;99.90;;;;;;5022629;28;20053;-84
2022/12/23 02:29:27;;;;;;;76.07;26.80;;;7.40;99.90;;;;;;5024196;28;20115;-84
2022/12/23 02:31:59;;;;;;;85.68;27.25;;;7.40;99.90;;;;;;5009243;28;20138;-85
2022/12/23 02:34:53;;;;;;;62.00;24.23;;;7.40;99.90;;;;;;5005985;28;20514;-85
2022/12/23 02:37:32;;;;;;;62.58;24.27;;;7.40;99.90;;;;;;5012814;28;20046;-85
2022/12/23 02:40:07;;;;;;;63.83;24.70;;;7.40;99.90;;;;;;4994487;28;20049;-85
2022/12/23 02:42:40;;;;;;;72.72;25.73;;;7.40;99.90;;;;;;5025682;28;20048;-85
2022/12/23 02:45:13;;;;;;;82.53;26.15;;;7.40;99.90;;;;;;5028005;28;20045;-85
2022/12/23 02:47:45;;;;;;;61.90;23.75;;;7.40;99.90;;;;;;5026922;28;20407;-85
2022/12/23 02:50:17;;;;;;;64.03;23.47;;;7.40;99.90;;;;;;5016056;28;20776;-86
2022/12/23 02:52:45;;;;;;;58.88;22.02;;;7.40;99.90;;;;;;5012355;28;20403;-85
2022/12/23 02:55:25;;;;;;;51.85;21.40;;;7.40;99.90;;;;;;5027118;28;20156;-84
2022/12/23 02:57:53;;;;;;;59.40;22.15;;;7.40;99.90;;;;;;5007557;28;20053;-85
2022/12/23 03:00:20;;;;;;;69.55;22.98;;;7.40;99.90;;;;;;5023509;28;20045;-84
2022/12/23 03:02:46;;;;;;;55.90;21.33;;;7.40;99.90;;;;;;5021828;28;20045;-85
2022/12/23 03:05:26;;;;;;;49.30;21.02;;;7.40;99.90;;;;;;5022797;28;20128;-84
2022/12/23 03:07:55;;;;;;;59.85;22.55;;;7.40;99.90;;;;;;5017927;28;20042;-84
2022/12/23 03:10:39;;;;;;;51.75;20.60;;;7.40;99.90;;;;;;5027316;28;20498;-84
2022/12/23 03:13:32;;;;;;;61.78;21.02;;;7.40;99.90;;;;;;5003127;28;20046;-85
2022/12/23 03:16:23;;;;;;;51.65;20.90;;;7.40;99.90;;;;;;5006416;28;20049;-84
2022/12/23 03:19:26;;;;;;;56.25;20.88;;;7.30;99.90;;;;;;5023297;28;20057;-84
2022/12/23 03:22:05;;;;;;;57.80;22.00;;;7.30;99.90;;;;;;5009773;28;20053;-84
2022/12/23 03:24:55;;;;;;;70.55;23.35;;;7.30;99.90;;;;;;5025407;28;20183;-84
2022/12/23 03:27:25;;;;;;;60.83;21.63;;;7.30;99.90;;;;;;5012068;28;20037;-84
2022/12/23 03:29:58;;;;;;;69.30;21.25;;;8.10;99.90;;;;;;5035334;28;20420;-84
2022/12/23 03:32:31;;;;;;;70.25;22.90;;;9.00;99.90;;;;;;5013364;28;20049;-83
2022/12/23 03:34:58;;;;;;;;;;;8.10;99.90;;;;;;5027019;28;20156;-83
2022/12/23 03:37:27;;;;;;;69.47;21.75;;;7.30;99.90;;;;;;5007430;28;20029;-84
2022/12/23 03:40:03;;;;;;;74.55;22.73;;;7.30;99.90;;;;;;5023739;28;20382;-84
2022/12/23 03:42:34;;;;;;;68.68;21.58;;;7.30;99.90;;;;;;5020858;28;20046;-84
2022/12/23 03:45:06;;;;;;;73.35;21.77;;;7.30;99.90;;;;;;5020355;28;20045;-84
2022/12/23 03:47:37;;;;;;;74.63;22.52;;;7.30;99.90;;;;;;5008830;28;20076;-84
2022/12/23 03:50:07;;;;;;;82.15;22.42;;;7.40;99.90;;;;;;5009386;28;20041;-84
2022/12/23 03:52:41;;;;;;;94.35;24.85;;;7.40;99.90;;;;;;5008644;28;20133;-84
2022/12/23 03:55:13;;;;;;;75.30;23.33;;;7.40;99.90;;;;;;4998314;28;20128;-83
2022/12/23 03:58:11;;;;;;;89.50;23.25;;;7.90;99.90;;;;;;5035123;28;20180;-84
2022/12/23 04:00:43;;;;;;;74.32;21.67;;;7.30;99.90;;;;;;5001588;28;20081;-83
2022/12/23 04:03:11;;;;;;;;;;;7.30;99.90;;;;;;4999214;28;20056;-84
2022/12/23 04:05:48;;;;;;;86.40;22.80;;;7.40;99.90;;;;;;5022557;28;19925;-84
2022/12/23 04:08:20;;;;;;;70.85;21.55;;;7.40;99.90;;;;;;4992863;28;20042;-84
2022/12/23 04:10:47;;;;;;;74.15;21.20;;;7.40;99.90;;;;;;5028638;28;20104;-84
2022/12/23 04:13:13;;;;;;;71.68;20.83;;;7.30;99.90;;;;;;5024362;28;20057;-84
2022/12/23 04:15:41;;;;;;;77.70;21.33;;;8.20;99.90;;;;;;5043950;28;20060;-84
2022/12/23 04:18:09;;;;;;;72.82;21.52;;;7.40;99.90;;;;;;5025724;28;20380;-84
2022/12/23 04:20:35;;;;;;;73.07;21.02;;;7.40;99.90;;;;;;5025022;28;20103;-83
2022/12/23 04:23:01;;;;;;;81.20;22.63;;;7.30;99.90;;;;;;5015424;28;20045;-83
2022/12/23 04:25:27;;;;;;;89.80;22.08;;;7.30;99.90;;;;;;5026671;28;20033;-84
2022/12/23 04:27:52;;;;;;;71.72;20.17;;;7.30;99.90;;;;;;5014709;28;20056;-83
2022/12/23 04:30:18;;;;;;;66.50;19.50;;;7.30;99.90;;;;;;5018559;28;20045;-83
2022/12/23 04:32:44;;;;;;;69.15;19.80;;;7.30;99.90;;;;;;5022170;28;20050;-84
2022/12/23 04:35:10;;;;;;;52.72;18.05;;;8.40;99.90;;;;;;5024060;28;20127;-84
2022/12/23 04:37:37;;;;;;;51.25;18.00;;;7.30;99.90;;;;;;5016079;28;20050;-84
2022/12/23 04:40:04;;;;;;;67.22;19.00;;;7.20;99.90;;;;;;5005489;28;20040;-83
2022/12/23 04:42:29;;;;;;;60.47;19.35;;;7.30;99.90;;;;;;5017341;28;20045;-84
2022/12/23 04:44:55;;;;;;;59.20;19.55;;;7.30;99.90;;;;;;4995471;28;20092;-84
2022/12/23 04:47:21;;;;;;;59.17;18.73;;;7.20;99.90;;;;;;5016422;28;20053;-84
2022/12/23 04:49:46;;;;;;;62.65;18.50;;;7.30;99.90;;;;;;5023096;28;20064;-83
2022/12/23 04:52:12;;;;;;;45.67;16.85;;;7.20;99.90;;;;;;5006981;28;20092;-84
2022/12/23 04:54:38;;;;;;;62.90;18.30;;;7.30;99.90;;;;;;5019989;28;20046;-84
2022/12/23 04:57:03;;;;;;;59.08;18.25;;;7.20;99.90;;;;;;5023989;28;20038;-84
2022/12/23 04:59:30;;;;;;;71.93;19.40;;;7.30;99.90;;;;;;5029237;28;20045;-83
2022/12/23 05:01:56;;;;;;;58.08;17.88;;;7.30;99.90;;;;;;5028304;28;20081;-84
2022/12/23 05:04:22;;;;;;;57.33;17.13;;;7.30;99.90;;;;;;5028938;28;20132;-83
2022/12/23 05:06:48;;;;;;;45.42;15.70;;;7.40;99.90;;;;;;5028112;28;20140;-85
2022/12/23 05:09:13;;;;;;;58.08;17.52;;;7.20;99.90;;;;;;5015125;28;20054;-84
2022/12/23 05:11:39;;;;;;;62.13;17.33;;;7.20;99.90;;;;;;5027876;28;20045;-84
2022/12/23 05:14:05;;;;;;;42.83;15.98;;;8.30;99.90;;;;;;5028841;28;20072;-84
2022/12/23 05:16:30;;;;;;;51.25;16.80;;;7.20;99.90;;;;;;5028964;28;20794;-84
2022/12/23 05:18:56;;;;;;;46.80;17.45;;;7.10;99.90;;;;;;5028580;28;20054;-84
2022/12/23 05:21:22;;;;;;;44.53;15.65;;;7.20;99.90;;;;;;5029138;28;20041;-85
2022/12/23 05:23:48;;;;;;;54.03;16.35;;;7.60;99.90;;;;;;5015829;28;20045;-84
2022/12/23 05:26:13;;;;;;;48.13;16.55;;;7.20;99.90;;;;;;5016071;28;20076;-84
2022/12/23 05:28:39;;;;;;;51.08;16.00;;;7.20;99.90;;;;;;5005229;28;20069;-84
2022/12/23 05:31:07;;;;;;;50.15;16.95;;;7.20;99.90;;;;;;4997903;28;20748;-84
2022/12/23 05:33:33;;;;;;;59.40;18.55;;;7.20;99.90;;;;;;5008399;28;20050;-85
2022/12/23 05:36:00;;;;;;;62.95;18.17;;;7.20;99.90;;;;;;5027867;28;20483;-85
2022/12/23 05:38:26;;;;;;;55.95;17.77;;;7.20;99.90;;;;;;5010943;28;20044;-84
2022/12/23 05:40:52;;;;;;;79.00;19.70;;;7.10;99.90;;;;;;5027421;28;20046;-84
2022/12/23 05:43:18;;;;;;;62.63;18.40;;;6.40;99.90;;;;;;5027550;28;20148;-84
2022/12/23 05:45:44;;;;;;;64.22;18.17;;;7.10;99.90;;;;;;5014539;28;20080;-84
2022/12/23 05:48:10;;;;;;;79.95;19.95;;;7.10;99.90;;;;;;5026089;28;20049;-85
2022/12/23 05:50:37;;;;;;;122.45;20.45;;;7.10;99.90;;;;;;5011125;28;20049;-84
2022/12/23 05:53:03;;;;;;;97.72;20.13;;;7.10;99.90;;;;;;5026051;28;20060;-84
2022/12/23 05:55:29;;;;;;;163.23;22.38;;;6.90;99.90;;;;;;5029369;28;20055;-84
2022/12/23 05:57:54;;;;;;;230.90;26.38;;;7.00;99.90;;;;;;5024432;28;20505;-84
2022/12/23 06:00:20;;;;;;;157.68;19.58;;;7.00;99.90;;;;;;5006438;28;20096;-84
2022/12/23 06:02:46;;;;;;;267.73;24.52;;;7.00;99.90;;;;;;5028285;28;20049;-84
2022/12/23 06:05:15;;;;;;;166.88;18.33;;;7.00;99.90;;;;;;5020831;28;20041;-84
2022/12/23 06:07:41;;;;;;;195.63;19.90;;;7.00;99.90;;;;;;5011584;28;20123;-84
2022/12/23 06:10:09;;;;;;;252.02;25.02;;;7.00;99.90;;;;;;5011347;28;20457;-85
2022/12/23 06:12:35;;;;;;;268.48;23.02;;;6.90;99.90;;;;;;5009461;28;20533;-84
2022/12/23 06:15:01;;;;;;;192.50;22.13;;;6.90;99.90;;;;;;5000915;28;20049;-83
2022/12/23 06:17:27;;;;;;;245.13;21.60;;;6.90;99.90;;;;;;4996988;28;20528;-84
2022/12/23 06:19:52;;;;;;;320.98;27.23;;;6.90;99.90;;;;;;5011870;28;20034;-84
2022/12/23 06:22:20;;;;;;;335.30;26.98;;;6.80;99.90;;;;;;5010009;28;20080;-83
2022/12/23 06:24:46;;;;;;;268.80;21.83;;;6.80;99.90;;;;;;5007810;28;20053;-85
2022/12/23 06:27:12;;;;;;;255.75;21.88;;;6.80;99.90;;;;;;5027487;28;21040;-84
2022/12/23 06:29:38;;;;;;;224.75;20.48;;;6.90;99.90;;;;;;5008853;28;20049;-85
2022/12/23 06:32:04;;;;;;;288.08;23.40;;;6.80;99.90;;;;;;5002655;28;20053;-84
2022/12/23 06:34:33;;;;;;;235.68;22.67;;;6.80;99.90;;;;;;5016878;28;20053;-85
2022/12/23 06:36:58;;;;;;;252.18;23.17;;;6.80;99.90;;;;;;5016224;28;20045;-85
2022/12/23 06:39:27;;;;;;;153.98;16.17;;;6.80;99.90;;;;;;5008424;28;20415;-85
2022/12/23 06:41:53;;;;;;;214.88;22.02;;;6.80;99.90;;;;;;5017511;28;20046;-85
2022/12/23 06:44:19;;;;;;;250.65;22.60;;;6.80;99.90;;;;;;5025877;28;20395;-85
2022/12/23 06:46:45;;;;;;;169.52;21.15;;;6.80;99.90;;;;;;5010386;28;20041;-85
2022/12/23 06:49:11;;;;;;;281.95;29.00;;;6.80;99.90;;;;;;5018434;28;20103;-84
2022/12/23 06:51:36;;;;;;;153.38;19.52;;;6.80;99.90;;;;;;5027220;28;20046;-85
2022/12/23 06:54:02;;;;;;;216.23;30.50;;;6.80;99.90;;;;;;5027362;28;20067;-83
2022/12/23 06:56:28;;;;;;;251.27;26.55;;;7.10;99.90;;;;;;5026298;28;20121;-85
2022/12/23 06:58:53;;;;;;;137.20;18.52;;;6.80;99.90;;;;;;5020051;28;20124;-86
2022/12/23 07:01:19;;;;;;;170.80;20.05;;;6.60;99.90;;;;;;5010369;28;20407;-86
2022/12/23 07:03:45;;;;;;;332.45;27.73;;;6.70;99.90;;;;;;5024097;28;20200;-85
2022/12/23 07:06:11;;;;;;;121.80;16.02;;;6.70;99.90;;;;;;4995999;28;21934;-87
2022/12/23 07:08:40;;;;;;;254.50;23.98;;;6.70;99.90;;;;;;5031049;28;20100;-89
2022/12/23 07:11:07;;;;;;;241.98;22.92;;;6.00;99.90;;;;;;5018350;28;20072;-88
2022/12/23 07:13:33;;;;;;;123.05;17.40;;;6.70;99.90;;;;;;5011314;28;20050;-85
2022/12/23 07:16:03;;;;;;;329.30;37.72;;;6.80;99.90;;;;;;5022003;28;20484;-85
2022/12/23 07:18:29;;;;;;;251.00;32.70;;;6.70;99.90;;;;;;5026765;28;20046;-84
2022/12/23 07:20:59;;;;;;;174.60;26.63;;;6.70;99.90;;;;;;5007609;28;20038;-85
2022/12/23 07:23:24;;;;;;;142.15;19.38;;;6.80;99.90;;;;;;4992456;28;20164;-86
2022/12/23 07:25:50;;;;;;;142.63;19.17;;;6.70;99.90;;;;;;5008790;28;20097;-86
2022/12/23 07:28:16;;;;;;;169.90;21.13;;;6.70;99.90;;;;;;5007411;28;20574;-86
2022/12/23 07:30:41;;;;;;;164.52;21.02;;;6.70;99.90;;;;;;5014975;28;20131;-85
2022/12/23 07:33:10;;;;;;;168.68;20.25;;;6.70;99.90;;;;;;5013265;28;20066;-85
2022/12/23 07:35:36;;;;;;;226.52;23.17;;;6.70;99.90;;;;;;5009203;28;20045;-84
2022/12/23 07:38:01;;;;;;;169.05;18.38;;;6.70;99.90;;;;;;5006693;28;20426;-83
2022/12/23 07:40:27;;;;;;;162.02;22.27;;;6.70;99.90;;;;;;5023539;28;20092;-87
2022/12/23 07:42:55;;;;;;;116.03;17.35;;;6.70;99.90;;;;;;5021699;28;20087;-85
2022/12/23 07:45:20;;;;;;;169.02;21.77;;;6.70;99.90;;;;;;5013409;28;20140;-84
2022/12/23 07:47:46;;;;;;;259.98;25.05;;;6.80;99.90;;;;;;5008534;28;20141;-84
2022/12/23 07:50:12;;;;;;;142.07;18.00;;;6.80;99.90;;;;;;5015808;28;20157;-84
2022/12/23 07:52:38;;;;;;;117.60;15.38;;;6.80;99.90;;;;;;5023191;28;20049;-84
2022/12/23 07:55:04;;;;;;;188.43;21.63;;;6.80;99.90;;;;;;5024043;28;20061;-84
2022/12/23 07:57:36;;;;;;;124.35;16.88;;;6.80;99.90;;;;;;5012143;28;20038;-85
2022/12/23 08:00:20;;;;;;;166.00;18.35;;;6.80;99.90;;;;;;5010917;28;20520;-85
2022/12/23 08:02:46;;;;;;;81.45;13.75;;;6.80;99.90;;;;;;5005678;28;20045;-84
2022/12/23 08:05:13;;;;;;;92.43;15.52;;;7.10;99.90;;;;;;5005948;28;20056;-85
2022/12/23 08:07:39;;;;;;;106.57;16.08;;;6.80;99.90;;;;;;5005273;28;20385;-85
2022/12/23 08:10:06;;;;;;;237.38;23.15;;;6.00;99.90;;;;;;5013105;28;20045;-84
2022/12/23 08:12:32;;;;;;;195.65;21.40;;;6.80;99.90;;;;;;5025895;28;20045;-84
2022/12/23 08:14:58;;;;;;;264.63;25.30;;;6.80;99.90;;;;;;5012522;28;20381;-84
2022/12/23 08:17:28;;;;;;;157.82;18.65;;;6.80;99.90;;;;;;5009272;28;20053;-85
2022/12/23 08:19:54;;;;;;;117.28;15.80;;;6.80;99.90;;;;;;4990855;28;20054;-84
2022/12/23 08:22:20;;;;;;;252.13;20.55;;;6.80;99.90;;;;;;5007849;28;20061;-84
2022/12/23 08:24:45;;;;;;;236.20;22.92;;;6.80;99.90;;;;;;4991640;28;20517;-85
2022/12/23 08:27:11;;;;;;;224.13;23.45;;;6.70;99.90;;;;;;5023363;28;20511;-85
2022/12/23 08:29:38;;;;;;;187.95;19.40;;;6.70;99.90;;;;;;5027258;28;20364;-85
2022/12/23 08:32:05;;;;;;;174.30;17.85;;;6.80;99.90;;;;;;5028879;28;20053;-84
2022/12/23 08:34:31;;;;;;;243.35;25.35;;;6.80;99.90;;;;;;5028466;28;20057;-84
2022/12/23 08:36:56;;;;;;;206.65;23.33;;;6.80;99.90;;;;;;5029915;28;20052;-84
2022/12/23 08:39:22;;;;;;;239.73;23.75;;;6.80;99.90;;;;;;5030241;28;20376;-84
2022/12/23 08:41:53;;;;;;;208.07;24.00;;;6.80;99.90;;;;;;5013621;28;20106;-85
2022/12/23 08:44:21;;;;;;;259.20;27.15;;;6.90;99.90;;;;;;5026875;28;20543;-85
2022/12/23 08:46:46;;;;;;;328.75;27.60;;;6.80;99.90;;;;;;4993792;28;20096;-84
2022/12/23 08:49:12;;;;;;;218.77;24.90;;;6.70;99.90;;;;;;5010681;28;20503;-84
2022/12/23 08:51:37;;;;;;;300.05;26.10;;;6.90;99.90;;;;;;5010018;28;20057;-84
2022/12/23 08:54:04;;;;;;;161.77;18.23;;;6.80;99.90;;;;;;5011743;28;20085;-84
2022/12/23 08:56:33;;;;;;;168.85;22.00;;;6.90;99.90;;;;;;5013975;28;20046;-84
2022/12/23 08:59:00;;;;;;;202.50;22.63;;;6.90;99.90;;;;;;5030971;28;20128;-84
2022/12/23 09:01:28;;;;;;;161.98;19.52;;;6.90;99.90;;;;;;5030908;28;20081;-84
2022/12/23 09:03:54;;;;;;;196.80;22.00;;;6.90;99.90;;;;;;5030435;28;20045;-85
2022/12/23 09:06:22;;;;;;;195.40;22.40;;;7.50;99.90;;;;;;5031603;28;20392;-84
2022/12/23 09:08:48;;;;;;;86.28;15.18;;;7.00;99.90;;;;;;5032167;28;20081;-85
2022/12/23 09:11:17;;;;;;;157.02;20.95;;;7.00;99.90;;;;;;5029949;28;20085;-85
2022/12/23 09:13:46;;;;;;;116.55;16.17;;;7.00;99.90;;;;;;5031650;28;20053;-85
2022/12/23 09:16:12;;;;;;;82.28;14.20;;;7.00;99.90;;;;;;5030315;28;20442;-85
2022/12/23 09:18:38;;;;;;;102.82;17.17;;;7.00;99.90;;;;;;5030099;28;20046;-85
2022/12/23 09:21:10;;;;;;;68.35;15.70;;;7.10;99.90;;;;;;5019174;28;20100;-85
2022/12/23 09:23:35;;;;;;;144.75;18.70;;;7.70;99.90;;;;;;5011573;28;20469;-84
2022/12/23 09:26:04;;;;;;;56.83;13.75;;;7.10;99.90;;;;;;5011235;28;20096;-84
2022/12/23 09:28:31;;;;;;;101.63;16.95;;;7.10;99.90;;;;;;5028083;28;20083;-84
2022/12/23 09:30:59;;;;;;;80.85;15.90;;;7.80;99.90;;;;;;5029772;28;20088;-84
2022/12/23 09:33:24;;;;;;;57.00;14.32;;;7.20;99.90;;;;;;5031321;28;20065;-84
2022/12/23 09:35:50;;;;;;;39.35;12.98;;;7.20;99.90;;;;;;5024525;28;20172;-86
2022/12/23 09:38:23;;;;;;;42.72;13.40;;;7.20;99.90;;;;;;5024453;28;20045;-84
2022/12/23 09:40:52;;;;;;;39.47;13.68;;;7.20;99.90;;;;;;5031424;28;20091;-86
2022/12/23 09:44:15;;;;;;;38.00;13.43;;;7.00;99.90;;;;;;5025898;28;20537;-87
2022/12/23 09:46:50;;;;;;;36.25;12.32;;;7.30;99.90;;;;;;5025893;28;20066;-86
2022/12/23 09:49:22;;;;;;;24.98;10.60;;;7.40;99.90;;;;;;5023291;28;20046;-85
2022/12/23 09:51:55;;;;;;;32.97;12.30;;;7.40;99.90;;;;;;5018661;28;20172;-86
2022/12/23 09:54:30;;;;;;;28.38;12.20;;;7.40;99.90;;;;;;5016544;28;20037;-85
2022/12/23 09:57:03;;;;;;;37.97;13.95;;;7.40;99.90;;;;;;5008134;28;20316;-85
2022/12/23 10:00:08;;;;;;;36.03;13.70;;;7.50;99.90;;;;;;5019287;28;20414;-86
2022/12/23 10:03:12;;;;;;;44.25;14.48;;;7.50;99.90;;;;;;5016165;28;20125;-86
2022/12/23 10:06:07;;;;;;;33.65;12.23;;;7.50;99.90;;;;;;4993581;28;20053;-86
2022/12/23 10:08:40;;;;;;;31.60;11.10;;;7.50;99.90;;;;;;5026286;28;20068;-85
2022/12/23 10:11:25;;;;;;;31.35;12.43;;;7.70;99.90;;;;;;5024379;28;20577;-84
2022/12/23 10:14:08;;;;;;;29.40;12.40;;;7.50;99.90;;;;;;5028212;28;20049;-84
2022/12/23 10:16:39;;;;;;;28.08;11.25;;;7.70;99.90;;;;;;5023941;28;20052;-87
2022/12/23 10:19:16;;;;;;;29.73;12.13;;;7.50;99.90;;;;;;5018961;28;20050;-84
2022/12/23 10:22:08;;;;;;;31.67;12.82;;;9.00;99.90;;;;;;5025904;28;20061;-84
2022/12/23 10:24:47;;;;;;;32.72;12.38;;;6.10;99.90;;;;;;5027488;28;20480;-83
2022/12/23 10:27:30;;;;;;;29.08;12.10;;;7.00;99.90;;;;;;5019574;28;20041;-81
2022/12/23 10:30:09;;;;;;;30.02;13.95;;;7.70;99.90;;;;;;5027619;28;20057;-81
2022/12/23 10:32:53;;;;;;;36.08;13.75;;;7.70;99.90;;;;;;5009637;28;20058;-79
2022/12/23 10:35:18;;;;;;;29.98;11.88;;;7.70;99.90;;;;;;5025113;28;20081;-79
2022/12/23 10:38:00;;;;;;;25.20;10.93;;;7.70;99.90;;;;;;5009412;28;20195;-79
2022/12/23 10:40:33;;;;;;;27.20;11.20;;;7.70;99.90;;;;;;5008778;28;20424;-79
2022/12/23 10:43:27;;;;;;;26.50;12.00;;;7.70;99.90;;;;;;5008511;28;20296;-79
2022/12/23 10:46:17;;;;;;;28.90;12.32;;;7.70;99.90;;;;;;5018294;28;20470;-81
2022/12/23 10:49:07;;;;;;;29.95;11.88;;;7.80;99.90;;;;;;5025992;28;20124;-78
2022/12/23 10:52:14;;;;;;;65.85;14.55;;;7.80;99.90;;;;;;5029947;28;20156;-79
2022/12/23 10:54:42;;;;;;;26.38;11.30;;;7.80;99.90;;;;;;5026238;28;20435;-79
2022/12/23 10:57:09;;;;;;;28.25;11.93;;;7.80;99.90;;;;;;5025831;28;20046;-79
2022/12/23 10:59:35;;;;;;;27.77;12.05;;;;;;;;;;5016600;28;20210;-79
2022/12/23 11:02:17;;;;;;;26.42;12.10;;;7.90;99.90;;;;;;5025350;28;20415;-80
2022/12/23 11:04:46;;;;;;;22.98;10.27;;;7.90;99.90;;;;;;5025662;28;20052;-80
2022/12/23 11:07:16;;;;;;;23.92;11.70;;;7.90;99.90;;;;;;5025883;28;20034;-80
2022/12/23 11:09:58;;;;;;;24.35;12.00;;;7.90;99.90;;;;;;5006653;28;20049;-82
2022/12/23 11:12:36;;;;;;;25.02;12.20;;;7.90;99.90;;;;;;5005855;28;20061;-80
2022/12/23 11:15:02;;;;;;;25.92;10.43;;;7.90;99.90;;;;;;5006829;28;20077;-80
2022/12/23 11:17:30;;;;;;;21.45;10.88;;;7.90;99.90;;;;;;5006854;28;20659;-81
2022/12/23 11:20:16;;;;;;;20.52;10.40;;;8.00;99.90;;;;;;5007795;28;20049;-83
2022/12/23 11:22:50;;;;;;;22.13;10.57;;;7.90;99.90;;;;;;5023129;28;20068;-81
2022/12/23 11:25:41;;;;;;;19.48;10.05;;;8.00;99.90;;;;;;5024879;28;20057;-82
2022/12/23 11:28:14;;;;;;;19.67;9.32;;;8.00;99.90;;;;;;5026086;28;20068;-82
2022/12/23 11:31:13;;;;;;;21.30;10.15;;;8.00;99.90;;;;;;5026336;28;20060;-83
2022/12/23 11:33:53;;;;;;;19.63;10.38;;;8.00;99.90;;;;;;5025438;28;20091;-83
2022/12/23 11:36:27;;;;;;;18.50;9.85;;;8.00;99.90;;;;;;5016602;28;20056;-83
2022/12/23 11:38:58;;;;;;;20.52;10.98;;;8.00;99.90;;;;;;4991595;28;20562;-84
2022/12/23 11:41:26;;;;;;;18.85;11.38;;;8.00;99.90;;;;;;5014044;28;20128;-82
2022/12/23 11:43:59;;;;;;;20.02;11.15;;;8.00;99.90;;;;;;5029429;28;20107;-83
2022/12/23 11:46:27;;;;;;;18.70;9.43;;;8.00;99.90;;;;;;5028104;28;20053;-82
2022/12/23 11:49:17;;;;;;;17.40;9.48;;;7.90;99.90;;;;;;5028242;28;20068;-83
2022/12/23 11:51:46;;;;;;;15.85;9.45;;;8.00;99.90;;;;;;5028366;28;20045;-83
2022/12/23 11:54:19;;;;;;;16.52;9.35;;;7.90;99.90;;;;;;5027244;28;20171;-82
2022/12/23 11:56:50;;;;;;;16.65;10.02;;;8.00;99.90;;;;;;5020072;28;20102;-83
2022/12/23 11:59:36;;;;;;;17.05;9.43;;;8.00;99.90;;;;;;5025851;28;20037;-82
2022/12/23 12:02:22;;;;;;;19.95;11.18;;;8.00;99.90;;;;;;5022375;28;20049;-83
2022/12/23 12:05:05;;;;;;;17.77;9.85;;;8.00;99.90;;;;;;5028264;28;20045;-83
2022/12/23 12:07:31;;;;;;;17.73;10.38;;;8.00;99.90;;;;;;5025661;28;20045;-82
2022/12/23 12:09:59;;;;;;;16.63;10.02;;;8.00;99.90;;;;;;5020368;28;20041;-82
2022/12/23 12:12:26;;;;;;;18.02;10.23;;;8.00;99.90;;;;;;5027108;28;20057;-82
2022/12/23 12:14:55;;;;;;;16.33;10.25;;;8.00;99.90;;;;;;5010615;28;20160;-82
2022/12/23 12:17:30;;;;;;;18.20;10.82;;;8.00;99.90;;;;;;5028561;28;20128;-82
2022/12/23 12:20:27;;;;;;;15.55;10.52;;;8.00;99.90;;;;;;5029000;28;20700;-82
2022/12/23 12:23:26;;;;;;;17.95;11.25;;;8.10;99.90;;;;;;5022426;28;20503;-84
2022/12/23 12:26:25;;;;;;;18.05;11.70;;;8.10;99.90;;;;;;5008160;28;20050;-83
2022/12/23 12:28:59;;;;;;;17.33;10.95;;;8.00;99.90;;;;;;4991134;28;20065;-83
2022/12/23 12:31:34;;;;;;;20.45;11.13;;;7.60;99.90;;;;;;5006776;28;20128;-82
2022/12/23 12:34:04;;;;;;;19.73;10.55;;;7.90;99.90;;;;;;5026891;28;20062;-83
2022/12/23 12:36:51;;;;;;;17.73;10.13;;;7.80;99.90;;;;;;5009093;28;20099;-84
2022/12/23 12:39:35;;;;;;;18.92;10.98;;;8.00;99.90;;;;;;4994477;28;20049;-84
2022/12/23 12:42:16;;;;;;;17.45;10.50;;;7.80;99.90;;;;;;5006589;28;20451;-84
2022/12/23 12:45:00;;;;;;;19.67;9.68;;;8.00;99.90;;;;;;5006531;28;20053;-83
2022/12/23 12:47:37;;;;;;;21.13;10.73;;;8.00;99.90;;;;;;5035726;28;20046;-84
2022/12/23 12:50:16;;;;;;;17.75;10.20;;;8.10;99.90;;;;;;5006344;28;20053;-86
2022/12/23 12:52:42;;;;;;;19.48;10.70;;;8.00;99.90;;;;;;4992770;28;20041;-85
2022/12/23 12:55:21;;;;;;;17.35;10.07;;;7.80;99.90;;;;;;5010943;28;20041;-84
2022/12/23 12:57:47;;;;;;;20.55;11.13;;;8.00;99.90;;;;;;5017941;28;20038;-85
2022/12/23 13:00:21;;;;;;;18.95;10.93;;;8.80;99.90;;;;;;5014292;28;20148;-85
2022/12/23 13:02:58;;;;;;;21.60;11.23;;;7.90;99.90;;;;;;5027065;28;20067;-85
2022/12/23 13:06:02;;;;;;;21.30;11.73;;;8.10;99.90;;;;;;5008919;28;20053;-83
2022/12/23 13:09:00;;;;;;;20.67;10.52;;;8.20;99.90;;;;;;5006841;28;20132;-81
2022/12/23 13:11:44;;;;;;;22.77;12.13;;;8.00;99.90;;;;;;5006522;28;20131;-84
2022/12/23 13:14:35;;;;;;;22.40;11.35;;;8.00;99.90;;;;;;5020840;28;20418;-84
2022/12/23 13:17:18;;;;;;;23.85;12.70;;;10.00;99.90;;;;;;5009571;28;20053;-84
2022/12/23 13:19:54;;;;;;;24.65;11.90;;;7.90;99.90;;;;;;5011104;28;20329;-86
2022/12/23 13:22:30;;;;;;;25.38;13.65;;;7.70;99.90;;;;;;4999644;28;20067;-84